createdAt,value
2022-10-08T00:01:30.121Z,64.20
2022-10-08T00:03:59.907Z,52.00
2022-10-08T00:06:30.078Z,51.90
2022-10-08T00:08:59.693Z,43.50
2022-10-08T00:11:30.773Z,61.30
2022-10-08T00:13:59.456Z,38.60
2022-10-08T00:16:30.319Z,60.50
2022-10-08T00:19:03.966Z,43.10
2022-10-08T00:24:02.992Z,57.60
2022-10-08T00:26:33.129Z,37.90
2022-10-08T00:29:04.446Z,56.80
2022-10-08T00:31:34.342Z,56.40
2022-10-08T00:36:34.945Z,54.40
2022-10-08T00:39:04.584Z,54.00
2022-10-08T00:41:35.966Z,55.30
2022-10-08T00:44:24.339Z,55.20
2022-10-08T00:46:54.282Z,49.20
2022-10-08T00:49:25.223Z,53.50
2022-10-08T00:51:57.157Z,55.30
2022-10-08T00:54:25.384Z,54.40
2022-10-08T00:56:55.482Z,44.10
2022-10-08T00:59:23.600Z,53.60
2022-10-08T01:01:52.896Z,54.70
2022-10-08T01:04:21.056Z,56.00
2022-10-08T01:06:55.560Z,54.00
2022-10-08T01:09:33.973Z,56.80
2022-10-08T01:12:10.477Z,55.00
2022-10-08T01:17:19.784Z,54.70
2022-10-08T01:20:21.953Z,41.00
2022-10-08T01:23:26.724Z,40.30
2022-10-08T01:26:03.196Z,55.60
2022-10-08T01:28:36.552Z,40.30
2022-10-08T01:31:08.807Z,54.50
2022-10-08T01:33:44.081Z,54.60
2022-10-08T01:36:15.055Z,55.00
2022-10-08T01:38:46.907Z,53.70
2022-10-08T01:41:18.768Z,54.30
2022-10-08T01:43:53.815Z,54.10
2022-10-08T01:46:25.010Z,55.00
2022-10-08T01:48:57.637Z,51.50
2022-10-08T01:51:32.944Z,54.00
2022-10-08T01:54:05.278Z,53.70
2022-10-08T01:56:35.504Z,54.40
2022-10-08T01:59:11.235Z,53.80
2022-10-08T02:01:53.270Z,53.90
2022-10-08T02:04:37.643Z,54.60
2022-10-08T02:07:09.362Z,56.30
2022-10-08T02:09:40.742Z,54.50
2022-10-08T02:12:09.953Z,56.70
2022-10-08T02:14:42.669Z,55.40
2022-10-08T02:17:22.592Z,58.50
2022-10-08T02:19:54.423Z,40.20
2022-10-08T02:22:27.876Z,57.20
2022-10-08T02:25:01.866Z,58.20
2022-10-08T02:27:39.396Z,57.30
2022-10-08T02:32:48.750Z,56.70
2022-10-08T02:35:22.912Z,56.00
2022-10-08T02:37:57.491Z,57.50
2022-10-08T02:40:27.137Z,56.40
2022-10-08T02:42:59.574Z,56.60
2022-10-08T02:45:31.756Z,56.90
2022-10-08T02:48:05.229Z,56.30
2022-10-08T02:50:37.205Z,55.40
2022-10-08T02:53:05.475Z,39.80
2022-10-08T02:55:42.623Z,54.00
2022-10-08T02:58:13.217Z,54.00
2022-10-08T03:00:46.677Z,53.60
2022-10-08T03:03:16.584Z,53.80
2022-10-08T03:05:44.934Z,40.60
2022-10-08T03:08:15.411Z,54.70
2022-10-08T03:10:45.409Z,40.70
2022-10-08T03:13:14.708Z,54.30
2022-10-08T03:15:44.748Z,52.30
2022-10-08T03:18:13.946Z,52.60
2022-10-08T03:20:46.056Z,51.50
2022-10-08T03:23:18.732Z,54.10
2022-10-08T03:25:46.877Z,53.80
2022-10-08T03:28:15.151Z,54.00
2022-10-08T03:30:44.669Z,52.40
2022-10-08T03:33:12.780Z,53.30
2022-10-08T03:35:46.571Z,53.60
2022-10-08T03:38:16.522Z,53.10
2022-10-08T03:40:44.442Z,40.30
2022-10-08T03:43:12.539Z,53.10
2022-10-08T03:48:11.047Z,53.00
2022-10-08T03:50:39.230Z,53.20
2022-10-08T03:53:07.297Z,52.50
2022-10-08T03:55:36.974Z,53.30
2022-10-08T03:58:05.054Z,51.70
2022-10-08T04:00:33.140Z,52.40
2022-10-08T04:03:01.281Z,51.00
2022-10-08T04:05:30.848Z,39.70
2022-10-08T04:07:58.905Z,51.10
2022-10-08T04:10:27.012Z,51.80
2022-10-08T04:12:55.086Z,52.30
2022-10-08T04:15:23.189Z,52.00
2022-10-08T04:17:51.243Z,51.40
2022-10-08T04:20:19.417Z,51.70
2022-10-08T04:22:49.949Z,53.90
2022-10-08T04:25:18.238Z,50.80
2022-10-08T04:27:49.238Z,51.00
2022-10-08T04:30:18.138Z,51.10
2022-10-08T04:32:46.502Z,51.20
2022-10-08T04:35:14.869Z,51.50
2022-10-08T04:37:42.944Z,50.90
2022-10-08T04:40:12.532Z,51.20
2022-10-08T04:42:40.605Z,50.30
2022-10-08T04:45:09.322Z,50.40
2022-10-08T04:47:37.378Z,51.50
2022-10-08T04:50:06.178Z,51.60
2022-10-08T04:52:34.264Z,52.40
2022-10-08T04:55:02.372Z,52.00
2022-10-08T04:57:32.959Z,52.20
2022-10-08T05:00:17.559Z,52.00
2022-10-08T05:02:47.180Z,52.30
2022-10-08T05:05:16.409Z,51.30
2022-10-08T05:07:44.875Z,39.90
2022-10-08T05:10:13.171Z,51.80
2022-10-08T05:12:42.689Z,51.50
2022-10-08T05:15:11.809Z,52.10
2022-10-08T05:17:39.872Z,52.80
2022-10-08T05:20:08.632Z,53.60
2022-10-08T05:22:36.691Z,53.70
2022-10-08T05:25:05.058Z,54.20
2022-10-08T05:27:33.173Z,53.60
2022-10-08T05:30:03.300Z,54.10
2022-10-08T05:32:31.400Z,53.70
2022-10-08T05:34:59.473Z,54.00
2022-10-08T05:37:27.568Z,53.00
2022-10-08T05:39:55.665Z,52.80
2022-10-08T05:42:23.778Z,53.20
2022-10-08T05:44:53.077Z,52.10
2022-10-08T05:47:22.553Z,52.70
2022-10-08T05:49:50.627Z,47.50
2022-10-08T05:52:18.718Z,53.00
2022-10-08T05:54:46.785Z,54.90
2022-10-08T05:57:14.873Z,54.30
2022-10-08T05:59:42.923Z,53.70
2022-10-08T06:02:11.553Z,53.20
2022-10-08T06:04:41.013Z,54.00
2022-10-08T06:07:09.156Z,53.20
2022-10-08T06:09:37.202Z,53.80
2022-10-08T06:12:06.532Z,55.00
2022-10-08T06:14:34.601Z,53.20
2022-10-08T06:17:02.688Z,54.90
2022-10-08T06:19:30.828Z,54.70
2022-10-08T06:22:00.477Z,55.80
2022-10-08T06:26:56.897Z,57.70
2022-10-08T06:29:24.961Z,57.40
2022-10-08T06:31:53.361Z,57.10
2022-10-08T06:34:21.858Z,58.00
2022-10-08T06:36:49.980Z,59.00
2022-10-08T06:39:19.685Z,59.80
2022-10-08T06:41:47.883Z,57.60
2022-10-08T06:44:19.088Z,61.20
2022-10-08T06:46:47.324Z,60.80
2022-10-08T06:49:15.650Z,58.70
2022-10-08T06:51:43.781Z,59.20
2022-10-08T06:54:11.856Z,59.30
2022-10-08T06:56:41.422Z,50.00
2022-10-08T06:59:10.152Z,59.30
2022-10-08T07:01:39.382Z,60.60
2022-10-08T07:04:07.772Z,58.90
2022-10-08T07:06:36.647Z,61.30
2022-10-08T07:09:05.392Z,61.90
2022-10-08T07:11:34.961Z,61.10
2022-10-08T07:14:04.455Z,59.80
2022-10-08T07:16:32.714Z,62.20
2022-10-08T07:19:00.867Z,63.00
2022-10-08T07:21:30.349Z,64.60
2022-10-08T07:24:00.432Z,63.60
2022-10-08T07:26:30.202Z,65.40
2022-10-08T07:29:00.844Z,66.50
2022-10-08T07:31:32.349Z,67.90
2022-10-08T07:34:01.797Z,68.30
2022-10-08T07:36:30.640Z,63.80
2022-10-08T07:39:00.345Z,65.30
2022-10-08T07:41:29.955Z,62.30
2022-10-08T07:43:59.897Z,65.00
2022-10-08T07:46:31.582Z,48.70
2022-10-08T07:49:01.494Z,48.40
2022-10-08T07:51:30.192Z,49.90
2022-10-08T07:54:02.291Z,68.90
2022-10-08T07:56:31.523Z,65.70
2022-10-08T07:59:00.053Z,66.20
2022-10-08T08:01:30.590Z,64.40
2022-10-08T08:04:02.052Z,65.40
2022-10-08T08:06:30.793Z,64.00
2022-10-08T08:09:00.464Z,60.80
2022-10-08T08:11:29.222Z,62.80
2022-10-08T08:13:57.413Z,65.40
2022-10-08T08:16:27.588Z,65.70
2022-10-08T08:18:59.159Z,67.00
2022-10-08T08:21:29.296Z,67.80
2022-10-08T08:23:59.558Z,68.20
2022-10-08T08:28:59.760Z,58.20
2022-10-08T08:31:30.063Z,64.60
2022-10-08T08:34:01.248Z,65.30
2022-10-08T08:36:32.147Z,66.50
2022-10-08T08:39:00.931Z,66.50
2022-10-08T08:41:44.581Z,66.50
2022-10-08T08:44:21.497Z,69.50
2022-10-08T08:46:54.393Z,67.90
2022-10-08T08:51:55.376Z,67.90
2022-10-08T08:54:24.329Z,67.80
2022-10-08T08:56:54.240Z,64.30
2022-10-08T08:59:27.301Z,49.50
2022-10-08T09:01:59.289Z,65.80
2022-10-08T09:04:45.045Z,66.90
2022-10-08T09:07:18.165Z,67.30
2022-10-08T09:09:52.136Z,66.70
2022-10-08T09:12:23.928Z,70.90
2022-10-08T09:14:55.032Z,68.10
2022-10-08T09:17:30.635Z,66.80
2022-10-08T09:20:01.623Z,65.00
2022-10-08T09:22:31.074Z,67.30
2022-10-08T09:25:01.993Z,69.60
2022-10-08T09:27:46.189Z,70.00
2022-10-08T09:30:33.233Z,55.40
2022-10-08T09:33:03.975Z,71.40
2022-10-08T09:35:35.746Z,54.40
2022-10-08T09:38:06.255Z,68.00
2022-10-08T09:40:34.513Z,67.90
2022-10-08T09:45:42.028Z,68.50
2022-10-08T09:48:22.199Z,66.90
2022-10-08T09:50:55.064Z,69.40
2022-10-08T09:53:26.164Z,71.80
2022-10-08T09:55:58.499Z,69.40
2022-10-08T09:58:26.865Z,72.70
2022-10-08T10:01:02.323Z,62.50
2022-10-08T10:03:31.028Z,74.30
2022-10-08T10:06:01.600Z,57.50
2022-10-08T10:08:45.972Z,52.40
2022-10-08T10:11:18.879Z,36.00
2022-10-08T10:13:48.695Z,35.10
2022-10-08T10:16:21.834Z,33.70
2022-10-08T10:18:55.284Z,32.30
2022-10-08T10:21:33.126Z,33.20
2022-10-08T10:24:16.046Z,33.10
2022-10-08T10:26:46.619Z,31.80
2022-10-08T10:29:20.330Z,30.70
2022-10-08T10:31:52.600Z,31.60
2022-10-08T10:34:24.896Z,33.90
2022-10-08T10:36:58.613Z,33.00
2022-10-08T10:39:35.085Z,33.90
2022-10-08T10:42:11.237Z,31.20
2022-10-08T10:44:53.520Z,32.70
2022-10-08T10:47:27.124Z,35.30
2022-10-08T10:49:59.496Z,34.60
2022-10-08T10:52:50.404Z,33.50
2022-10-08T10:55:23.385Z,32.50
2022-10-08T10:58:23.404Z,32.10
2022-10-08T11:01:00.561Z,29.20
2022-10-08T11:03:38.479Z,29.70
2022-10-08T11:06:25.567Z,30.20
2022-10-08T11:09:00.709Z,28.70
2022-10-08T11:11:37.268Z,27.70
2022-10-08T11:14:33.820Z,26.90
2022-10-08T11:17:13.833Z,26.80
2022-10-08T11:19:51.097Z,27.20
2022-10-08T11:22:26.378Z,27.20
2022-10-08T11:25:02.068Z,27.00
2022-10-08T11:27:39.609Z,26.70
2022-10-08T11:30:14.429Z,26.50
2022-10-08T11:32:45.155Z,26.40
2022-10-08T11:35:25.499Z,25.40
2022-10-08T11:38:00.208Z,24.00
2022-10-08T11:40:36.136Z,25.40
2022-10-08T11:43:11.951Z,25.90
2022-10-08T11:45:41.753Z,25.50
2022-10-08T11:48:31.547Z,25.70
2022-10-08T11:51:37.340Z,26.50
2022-10-08T11:54:19.062Z,27.60
2022-10-08T11:56:51.793Z,27.60
2022-10-08T11:59:36.905Z,27.90
2022-10-08T12:02:08.464Z,28.70
2022-10-08T12:04:38.997Z,29.10
2022-10-08T12:07:21.243Z,29.50
2022-10-08T12:10:24.217Z,30.00
2022-10-08T12:13:33.420Z,30.80
2022-10-08T12:16:05.103Z,30.80
2022-10-08T12:18:46.452Z,31.70
2022-10-08T12:21:53.897Z,31.70
2022-10-08T12:24:52.478Z,32.20
2022-10-08T12:27:37.457Z,32.60
2022-10-08T12:30:11.049Z,32.60
2022-10-08T12:32:58.056Z,33.30
2022-10-08T12:35:29.613Z,32.90
2022-10-08T12:38:23.757Z,32.10
2022-10-08T12:41:02.229Z,31.10
2022-10-08T12:43:42.901Z,31.10
2022-10-08T12:46:25.501Z,31.90
2022-10-08T12:49:00.032Z,31.40
2022-10-08T12:51:36.528Z,31.30
2022-10-08T12:54:05.244Z,30.60
2022-10-08T12:56:33.717Z,30.30
2022-10-08T12:59:05.111Z,30.00
2022-10-08T13:01:36.002Z,30.00
2022-10-08T13:04:08.988Z,30.00
2022-10-08T13:06:37.257Z,29.60
2022-10-08T13:09:26.305Z,27.50
2022-10-08T13:11:58.280Z,25.70
2022-10-08T13:14:31.895Z,26.00
2022-10-08T13:17:01.706Z,26.70
2022-10-08T13:19:32.897Z,27.20
2022-10-08T13:22:02.637Z,27.40
2022-10-08T13:24:37.676Z,27.60
2022-10-08T13:27:07.346Z,28.00
2022-10-08T13:29:38.644Z,28.40
2022-10-08T13:32:21.781Z,28.10
2022-10-08T13:34:52.183Z,28.10
2022-10-08T13:37:32.760Z,28.50
2022-10-08T13:40:02.941Z,29.20
2022-10-08T13:42:34.003Z,28.60
2022-10-08T13:45:04.205Z,28.60
2022-10-08T13:47:33.676Z,28.80
2022-10-08T13:50:02.133Z,28.90
2022-10-08T13:52:33.168Z,28.90
2022-10-08T13:55:03.311Z,29.10
2022-10-08T13:57:31.513Z,29.50
2022-10-08T13:59:59.590Z,29.20
2022-10-08T14:02:27.939Z,30.00
2022-10-08T14:04:57.640Z,29.80
2022-10-08T14:07:31.243Z,29.00
2022-10-08T14:10:01.634Z,28.80
2022-10-08T14:12:33.394Z,28.40
2022-10-08T14:15:01.735Z,27.20
2022-10-08T14:17:29.852Z,27.20
2022-10-08T14:19:59.593Z,27.50
2022-10-08T14:22:27.678Z,27.80
2022-10-08T14:24:55.737Z,28.30
2022-10-08T14:27:24.055Z,29.10
2022-10-08T14:29:52.107Z,28.90
2022-10-08T14:32:20.204Z,29.50
2022-10-08T14:34:48.265Z,28.50
2022-10-08T14:37:17.794Z,27.60
2022-10-08T14:39:45.910Z,27.80
2022-10-08T14:42:14.016Z,28.00
2022-10-08T14:44:42.072Z,28.30
2022-10-08T14:47:10.148Z,28.60
2022-10-08T14:49:38.229Z,28.80
2022-10-08T14:52:06.344Z,29.20
2022-10-08T14:54:35.785Z,29.40
2022-10-08T14:57:03.919Z,29.70
2022-10-08T14:59:35.160Z,30.00
2022-10-08T15:02:05.723Z,30.00
2022-10-08T15:04:33.870Z,30.30
2022-10-08T15:07:01.942Z,30.50
2022-10-08T15:09:31.426Z,30.80
2022-10-08T15:12:00.870Z,31.00
2022-10-08T15:14:28.954Z,31.20
2022-10-08T15:16:57.054Z,31.30
2022-10-08T15:19:25.184Z,31.50
2022-10-08T15:21:53.273Z,31.50
2022-10-08T15:24:21.347Z,31.80
2022-10-08T15:26:49.403Z,31.80
2022-10-08T15:29:18.956Z,31.90
2022-10-08T15:31:47.075Z,32.10
2022-10-08T15:34:18.288Z,32.20
2022-10-08T15:36:46.869Z,32.50
2022-10-08T15:39:16.760Z,32.70
2022-10-08T15:41:46.961Z,32.80
2022-10-08T15:44:19.384Z,32.90
2022-10-08T15:46:47.940Z,33.10
2022-10-08T15:49:16.263Z,33.30
2022-10-08T16:06:37.563Z,51.50
2022-10-08T16:11:35.715Z,52.80
2022-10-08T16:14:06.382Z,69.00
2022-10-08T16:16:34.584Z,33.40
2022-10-08T16:19:06.781Z,34.00
2022-10-08T16:21:37.215Z,34.40
2022-10-08T16:24:06.604Z,34.40
2022-10-08T16:26:35.561Z,34.60
2022-10-08T16:29:06.195Z,34.70
2022-10-08T16:31:36.384Z,34.70
2022-10-08T16:34:07.707Z,34.80
2022-10-08T16:36:37.423Z,34.80
2022-10-08T16:39:07.363Z,35.10
2022-10-08T16:41:37.243Z,34.80
2022-10-08T16:44:11.988Z,35.20
2022-10-08T16:46:42.795Z,35.30
2022-10-08T16:49:21.282Z,35.20
2022-10-08T16:51:53.104Z,35.50
2022-10-08T16:54:21.378Z,35.70
2022-10-08T16:56:49.436Z,35.50
2022-10-08T16:59:20.152Z,35.30
2022-10-08T17:01:50.680Z,35.80
2022-10-08T17:04:21.123Z,35.80
2022-10-08T17:06:49.410Z,36.00
2022-10-08T17:09:17.598Z,36.10
2022-10-08T17:11:45.847Z,50.10
2022-10-08T17:19:12.273Z,56.90
2022-10-08T17:21:41.857Z,58.80
2022-10-08T17:26:39.221Z,58.20
2022-10-08T17:29:09.005Z,54.80
2022-10-08T17:31:37.711Z,60.70
2022-10-08T17:36:36.385Z,56.00
2022-10-08T17:39:08.022Z,60.00
2022-10-08T17:41:37.529Z,57.10
2022-10-08T17:44:08.121Z,56.10
2022-10-08T17:46:38.457Z,54.70
2022-10-08T17:51:35.443Z,73.00
2022-10-08T17:54:06.572Z,58.40
2022-10-08T17:56:35.729Z,76.70
2022-10-08T18:01:34.270Z,57.00
2022-10-08T18:04:04.517Z,54.90
2022-10-08T18:06:34.507Z,75.00
2022-10-08T18:09:05.274Z,56.30
2022-10-08T18:11:36.817Z,77.40
2022-10-08T18:14:06.454Z,54.70
2022-10-08T18:19:08.425Z,72.20
2022-10-08T18:21:38.254Z,75.40
2022-10-08T18:24:06.936Z,73.80
2022-10-08T18:26:37.198Z,73.60
2022-10-08T18:29:08.894Z,72.10
2022-10-08T18:31:38.052Z,50.80
2022-10-08T18:36:37.870Z,50.90
2022-10-08T18:39:07.680Z,71.50
2022-10-08T18:44:08.338Z,51.00
2022-10-08T18:46:37.679Z,69.30
2022-10-08T18:49:06.301Z,68.30
2022-10-08T18:51:35.883Z,70.00
2022-10-08T18:59:07.182Z,52.10
2022-10-08T19:01:37.364Z,68.40
2022-10-08T19:04:07.337Z,51.00
2022-10-08T19:06:37.439Z,67.60
2022-10-08T19:09:07.119Z,67.30
2022-10-08T19:11:41.860Z,49.30
2022-10-08T19:16:43.427Z,67.40
2022-10-08T19:19:14.989Z,65.90
2022-10-08T19:21:43.255Z,62.50
2022-10-08T19:24:14.679Z,42.40
2022-10-08T19:26:43.086Z,39.80
2022-10-08T19:29:16.505Z,43.70
2022-10-08T19:31:47.450Z,40.10
2022-10-08T19:34:16.988Z,62.10
2022-10-08T19:36:45.503Z,60.20
2022-10-08T19:39:15.695Z,62.50
2022-10-08T19:41:45.123Z,59.80
2022-10-08T19:44:14.826Z,59.40
2022-10-08T19:46:43.153Z,60.10
2022-10-08T19:49:12.116Z,48.60
2022-10-08T19:51:40.794Z,58.80
2022-10-08T19:54:09.142Z,59.00
2022-10-08T19:56:37.535Z,60.00
2022-10-08T19:59:06.086Z,59.30
2022-10-08T20:01:37.858Z,59.00
2022-10-08T20:04:07.603Z,58.90
2022-10-08T20:06:38.695Z,41.50
2022-10-08T20:09:08.090Z,58.80
2022-10-08T20:11:36.368Z,58.20
2022-10-08T20:14:04.647Z,59.80
2022-10-08T20:16:37.119Z,60.50
2022-10-08T20:19:08.139Z,58.30
2022-10-08T20:21:38.624Z,58.90
2022-10-08T20:24:07.524Z,60.70
2022-10-08T20:26:37.765Z,58.20
2022-10-08T20:29:08.560Z,40.30
2022-10-08T20:31:40.709Z,40.20
2022-10-08T20:34:12.340Z,56.90
2022-10-08T20:36:40.668Z,58.50
2022-10-08T20:39:09.085Z,59.90
2022-10-08T20:44:06.176Z,60.40
2022-10-08T20:46:37.187Z,59.80
2022-10-08T20:49:05.613Z,59.90
2022-10-08T20:51:34.610Z,60.90
2022-10-08T20:54:05.500Z,44.20
2022-10-08T20:56:39.820Z,43.50
2022-10-08T20:59:08.992Z,56.70
2022-10-08T21:01:39.654Z,59.10
2022-10-08T21:04:08.653Z,40.50
2022-10-08T21:06:38.734Z,40.60
2022-10-08T21:09:06.977Z,40.60
2022-10-08T21:11:36.603Z,40.70
2022-10-08T21:14:05.612Z,40.70
2022-10-08T21:16:35.999Z,40.60
2022-10-08T21:19:08.220Z,40.60
2022-10-08T21:21:36.381Z,40.70
2022-10-08T21:24:04.573Z,40.60
2022-10-08T21:26:35.282Z,40.60
2022-10-08T21:29:05.613Z,40.60
2022-10-08T21:31:36.149Z,40.70
2022-10-08T21:34:06.741Z,40.60
2022-10-08T21:36:37.370Z,40.60
2022-10-08T21:39:06.962Z,40.50
2022-10-08T21:41:36.946Z,40.60
2022-10-08T21:44:07.238Z,40.70
2022-10-08T21:46:37.156Z,40.60
2022-10-08T21:49:07.556Z,40.60
2022-10-08T21:51:36.133Z,40.60
2022-10-08T21:54:06.465Z,40.60
2022-10-08T21:56:36.675Z,40.60
2022-10-08T21:59:06.750Z,40.60
2022-10-08T22:01:36.751Z,40.70
2022-10-08T22:04:07.013Z,40.60
2022-10-08T22:06:37.579Z,40.70
2022-10-08T22:09:06.905Z,40.70
2022-10-08T22:11:35.728Z,40.60
2022-10-08T22:14:04.159Z,40.70
2022-10-08T22:16:32.344Z,40.60
2022-10-08T22:19:00.606Z,40.70
2022-10-08T22:21:30.232Z,40.60
2022-10-08T22:23:58.292Z,40.80
2022-10-08T22:26:30.097Z,40.80
2022-10-08T22:28:59.023Z,40.70
2022-10-08T22:31:27.582Z,40.70
2022-10-08T22:33:56.300Z,40.80
2022-10-08T22:36:26.481Z,40.80
2022-10-08T22:38:57.355Z,40.80
2022-10-08T22:41:27.171Z,40.80
2022-10-08T22:43:55.669Z,40.90
2022-10-08T22:46:25.792Z,40.90
2022-10-08T22:48:57.362Z,40.80
2022-10-08T22:51:25.691Z,40.80
2022-10-08T22:53:55.181Z,40.80
2022-10-08T22:56:25.316Z,40.90
2022-10-08T22:58:53.508Z,41.00
2022-10-08T23:01:23.406Z,40.90
2022-10-08T23:03:51.529Z,41.00
2022-10-08T23:06:22.583Z,40.90
2022-10-08T23:08:56.105Z,40.90
2022-10-08T23:11:24.174Z,40.90
2022-10-08T23:13:52.473Z,40.90
2022-10-08T23:16:21.002Z,40.90
2022-10-08T23:18:54.552Z,40.90
2022-10-08T23:21:23.075Z,41.00
2022-10-08T23:23:52.066Z,41.00
2022-10-08T23:26:22.382Z,41.00
2022-10-08T23:28:51.739Z,41.00
2022-10-08T23:31:21.808Z,41.00
2022-10-08T23:33:51.690Z,41.00
2022-10-08T23:36:22.191Z,41.00
2022-10-08T23:38:50.646Z,41.10
2022-10-08T23:41:21.439Z,41.10
2022-10-08T23:43:51.039Z,41.10
2022-10-08T23:46:21.787Z,41.10
2022-10-08T23:48:50.637Z,41.10
2022-10-08T23:51:20.547Z,41.20
2022-10-08T23:53:49.425Z,41.20
2022-10-08T23:56:17.669Z,41.20
2022-10-08T23:58:47.445Z,41.10
